Time;durP1;ratioP1;P1;durP2;ratioP2;P2;SDS_P1;SDS_P2;PMS_P1;PMS_P2;Temp;Humidity;BMP_temperature;BMP_pressure;BME280_temperature;BME280_humidity;BME280_pressure;Samples;Min_cycle;Max_cycle;Signal;HPM_P1;HPM_P2
2023/05/20 19:34:21;;;;;;;6.00;3.90;;;14.00;99.90;;;;;;2111326;27;20600;-70
2023/05/20 19:35:22;;;;;;;4.43;3.33;;;14.80;99.90;;;;;;2088600;28;20856;-70
2023/05/20 19:36:23;;;;;;;5.07;3.80;;;14.80;99.90;;;;;;2094530;28;20495;-70
2023/05/20 19:37:24;;;;;;;3.37;3.07;;;14.90;99.60;;;;;;2102091;28;20466;-70
2023/05/20 19:38:25;;;;;;;4.27;3.60;;;14.90;99.60;;;;;;2092642;28;20689;-72
2023/05/20 19:39:25;;;;;;;3.90;3.50;;;14.90;99.40;;;;;;2086062;28;20797;-71
2023/05/20 19:40:27;;;;;;;3.60;3.10;;;14.90;99.30;;;;;;2094160;28;20227;-70
2023/05/20 19:41:28;;;;;;;3.90;3.50;;;14.90;99.30;;;;;;2091661;28;20779;-70
2023/05/20 19:42:29;;;;;;;6.90;3.80;;;14.90;99.20;;;;;;2083188;28;20558;-71
2023/05/20 19:43:30;;;;;;;5.23;3.43;;;14.80;99.30;;;;;;2083863;28;20236;-71
2023/05/20 19:44:30;;;;;;;4.57;3.33;;;14.90;99.20;;;;;;2094438;28;20234;-70
2023/05/20 19:45:31;;;;;;;4.70;3.70;;;14.80;99.40;;;;;;2086025;28;20220;-69
2023/05/20 19:46:33;;;;;;;3.60;3.27;;;14.80;99.60;;;;;;2086827;28;20591;-69
2023/05/20 19:47:35;;;;;;;4.53;3.33;;;14.80;99.90;;;;;;2090651;28;20235;-69
2023/05/20 19:48:35;;;;;;;4.00;3.60;;;14.80;99.60;;;;;;2091925;28;20879;-70
2023/05/20 19:49:37;;;;;;;4.47;3.67;;;14.80;99.50;;;;;;2079253;28;20458;-68
2023/05/20 19:50:38;;;;;;;6.03;3.80;;;14.70;99.70;;;;;;2083041;28;20232;-69
2023/05/20 19:51:40;;;;;;;4.30;3.50;;;14.80;99.50;;;;;;2093659;28;20465;-70
2023/05/20 19:52:41;;;;;;;5.33;4.13;;;14.80;99.30;;;;;;2093503;28;20220;-72
2023/05/20 19:53:42;;;;;;;4.10;3.70;;;14.80;99.10;;;;;;2081932;28;20476;-73
2023/05/20 19:54:43;;;;;;;3.63;3.00;;;14.80;99.20;;;;;;2074508;28;20477;-73
2023/05/20 19:55:44;;;;;;;4.97;4.00;;;14.80;99.30;;;;;;2071487;28;20225;-72
2023/05/20 19:56:45;;;;;;;4.93;4.17;;;14.70;99.50;;;;;;2085196;28;20262;-71
2023/05/20 19:57:51;;;;;;;4.10;3.40;;;14.60;99.70;;;;;;2090905;28;20542;-69
2023/05/20 19:58:52;;;;;;;5.77;3.80;;;14.60;99.90;;;;;;2092524;28;20945;-70
2023/05/20 19:59:53;;;;;;;5.73;4.03;;;14.60;99.90;;;;;;2082649;28;20461;-69
2023/05/20 20:00:54;;;;;;;4.83;3.70;;;14.60;99.90;;;;;;2084901;28;20701;-69
2023/05/20 20:01:55;;;;;;;4.97;3.50;;;14.70;99.80;;;;;;2091933;28;20230;-70
2023/05/20 20:02:56;;;;;;;4.30;3.90;;;14.60;99.90;;;;;;2103039;28;20605;-70
2023/05/20 20:03:57;;;;;;;5.10;3.63;;;14.60;99.90;;;;;;2088250;28;20922;-71
2023/05/20 20:04:58;;;;;;;4.57;3.60;;;14.60;99.90;;;;;;2082502;28;20461;-71
2023/05/20 20:05:58;;;;;;;5.87;4.00;;;14.50;99.90;;;;;;2092518;28;20712;-71
2023/05/20 20:06:59;;;;;;;5.87;4.20;;;14.50;99.90;;;;;;2093846;28;20258;-71
2023/05/20 20:08:00;;;;;;;5.10;4.07;;;14.50;99.90;;;;;;2088976;28;20216;-71
2023/05/20 20:09:03;;;;;;;6.77;4.30;;;14.50;99.90;;;;;;2098432;28;20219;-71
2023/05/20 20:10:07;;;;;;;5.30;4.10;;;14.50;99.90;;;;;;2085623;28;20268;-70
2023/05/20 20:11:08;;;;;;;3.97;3.53;;;14.40;99.90;;;;;;2079915;28;20812;-70
2023/05/20 20:12:09;;;;;;;5.43;3.80;;;14.40;99.90;;;;;;2080515;28;20430;-70
2023/05/20 20:13:10;;;;;;;5.17;4.40;;;14.50;99.90;;;;;;2080199;28;20433;-70
2023/05/20 20:14:12;;;;;;;6.23;4.10;;;14.40;99.90;;;;;;2076065;28;20196;-70
2023/05/20 20:15:13;;;;;;;4.23;3.83;;;14.50;99.90;;;;;;2088423;28;20215;-69
2023/05/20 20:16:14;;;;;;;4.07;3.53;;;14.50;99.90;;;;;;2092415;28;20880;-70
2023/05/20 20:17:16;;;;;;;8.03;4.33;;;14.50;99.90;;;;;;2096639;28;20678;-71
2023/05/20 20:18:16;;;;;;;5.27;4.70;;;14.40;99.90;;;;;;2088020;28;20442;-72
2023/05/20 20:19:17;;;;;;;5.13;4.30;;;14.40;99.90;;;;;;2087123;28;20625;-70
2023/05/20 20:20:19;;;;;;;6.33;4.60;;;14.40;99.90;;;;;;2101666;28;20190;-70
2023/05/20 20:21:20;;;;;;;6.00;4.40;;;14.40;99.90;;;;;;2096493;28;20192;-70
2023/05/20 20:22:21;;;;;;;5.40;4.53;;;14.40;99.90;;;;;;2096534;28;20231;-70
2023/05/20 20:23:22;;;;;;;6.90;4.33;;;14.40;99.90;;;;;;2104350;28;20295;-70
2023/05/20 20:24:23;;;;;;;5.27;4.00;;;14.30;99.90;;;;;;2107143;28;20474;-70
2023/05/20 20:25:25;;;;;;;6.63;4.43;;;14.30;99.90;;;;;;2104563;28;20231;-70
2023/05/20 20:26:26;;;;;;;6.40;4.80;;;14.30;99.90;;;;;;2104994;28;20304;-70
2023/05/20 20:27:27;;;;;;;6.00;4.83;;;14.20;99.90;;;;;;2090747;28;20296;-69
2023/05/20 20:28:27;;;;;;;5.87;3.90;;;14.20;99.90;;;;;;2082575;28;20229;-68
2023/05/20 20:29:28;;;;;;;7.40;4.40;;;14.20;99.90;;;;;;2078362;28;21320;-69
2023/05/20 20:30:29;;;;;;;6.80;5.00;;;14.10;99.90;;;;;;2084287;28;20252;-68
2023/05/20 20:31:30;;;;;;;6.22;4.45;;;14.20;99.90;;;;;;2090340;28;20247;-70
2023/05/20 20:32:31;;;;;;;5.93;4.60;;;14.20;99.90;;;;;;2099943;28;20222;-70
2023/05/20 20:33:32;;;;;;;5.40;4.47;;;14.20;99.90;;;;;;2080917;28;20224;-68
2023/05/20 20:34:33;;;;;;;7.70;5.00;;;14.30;99.90;;;;;;2069245;28;20351;-67
2023/05/20 20:35:37;;;;;;;5.70;4.70;;;14.30;99.90;;;;;;2077221;28;20702;-68
2023/05/20 20:36:38;;;;;;;6.37;4.83;;;14.30;99.90;;;;;;2088326;28;20223;-68
2023/05/20 20:37:39;;;;;;;6.63;5.23;;;14.20;99.90;;;;;;2085521;28;20468;-68
2023/05/20 20:38:45;;;;;;;7.77;4.83;;;14.20;99.90;;;;;;2084600;28;20228;-68
2023/05/20 20:39:47;;;;;;;7.88;5.43;;;14.30;99.90;;;;;;2080101;28;20593;-69
2023/05/20 20:40:48;;;;;;;5.47;4.60;;;14.20;99.90;;;;;;2078258;28;20220;-69
2023/05/20 20:41:49;;;;;;;6.03;4.85;;;14.20;99.90;;;;;;2076487;28;20228;-71
2023/05/20 20:42:53;;;;;;;6.73;4.97;;;14.20;99.90;;;;;;2089007;28;20675;-69
2023/05/20 20:43:54;;;;;;;7.13;5.15;;;14.20;99.90;;;;;;2086730;28;20305;-69
2023/05/20 20:44:55;;;;;;;6.18;4.90;;;14.20;99.90;;;;;;2087638;28;20231;-71
2023/05/20 20:45:56;;;;;;;6.27;4.60;;;14.20;99.90;;;;;;2079283;28;20364;-70
2023/05/20 20:46:57;;;;;;;7.33;5.00;;;14.20;99.90;;;;;;2060918;28;20218;-69
2023/05/20 20:48:04;;;;;;;6.47;4.68;;;14.30;99.90;;;;;;2076775;28;20244;-70
2023/05/20 20:49:05;;;;;;;6.67;5.10;;;14.30;99.90;;;;;;2077956;28;20225;-71
2023/05/20 20:50:07;;;;;;;6.50;5.00;;;14.30;99.90;;;;;;2088947;28;20484;-70
2023/05/20 20:51:08;;;;;;;7.22;4.78;;;14.30;99.90;;;;;;2086947;28;20196;-70
2023/05/20 20:52:09;;;;;;;6.53;5.43;;;14.40;99.90;;;;;;2087246;28;20192;-70
2023/05/20 20:53:12;;;;;;;7.68;5.53;;;14.30;99.90;;;;;;2076162;28;20188;-70
2023/05/20 20:54:15;;;;;;;6.80;5.47;;;14.40;99.90;;;;;;2081396;28;20200;-69
2023/05/20 20:55:16;;;;;;;7.90;5.63;;;14.40;99.90;;;;;;2084398;28;20420;-69
2023/05/20 20:56:17;;;;;;;7.13;5.30;;;14.30;99.90;;;;;;2080198;28;20211;-69
2023/05/20 20:57:17;;;;;;;9.27;5.27;;;14.30;99.90;;;;;;2085325;28;20192;-69
2023/05/20 20:58:18;;;;;;;8.50;6.07;;;14.30;99.90;;;;;;2085604;28;20207;-69
2023/05/20 20:59:20;;;;;;;6.43;5.20;;;14.30;99.90;;;;;;2080215;28;20197;-69
2023/05/20 21:00:23;;;;;;;7.63;5.50;;;14.30;99.90;;;;;;2074408;28;20741;-69
2023/05/20 21:01:24;;;;;;;7.78;5.75;;;14.30;99.90;;;;;;2087125;28;20470;-70
2023/05/20 21:02:24;;;;;;;6.83;5.20;;;14.30;99.90;;;;;;2093258;28;20231;-70
2023/05/20 21:03:26;;;;;;;10.63;6.13;;;14.20;99.90;;;;;;2082335;28;20323;-70
2023/05/20 21:04:26;;;;;;;7.27;5.63;;;14.30;99.90;;;;;;2076177;28;20296;-69
2023/05/20 21:05:27;;;;;;;7.30;5.77;;;14.20;99.90;;;;;;2080562;28;20316;-68
2023/05/20 21:06:30;;;;;;;7.60;6.10;;;14.20;99.90;;;;;;2093098;28;20227;-69
2023/05/20 21:07:31;;;;;;;7.10;5.85;;;14.30;99.90;;;;;;2092009;28;20456;-69
2023/05/20 21:08:32;;;;;;;7.60;5.93;;;14.40;99.90;;;;;;2078282;28;20279;-69
2023/05/20 21:09:32;;;;;;;7.60;6.33;;;14.30;99.90;;;;;;2068655;28;20251;-69
2023/05/20 21:10:35;;;;;;;7.83;6.10;;;14.40;99.90;;;;;;2083536;28;20221;-70
2023/05/20 21:11:43;;;;;;;8.23;6.20;;;14.40;99.90;;;;;;2086769;28;20216;-69
2023/05/20 21:12:44;;;;;;;8.02;6.05;;;14.40;99.90;;;;;;2086964;28;20223;-70
2023/05/20 21:13:45;;;;;;;8.93;5.93;;;14.40;99.90;;;;;;2089049;28;20753;-70
2023/05/20 21:14:46;;;;;;;8.30;6.27;;;14.40;99.90;;;;;;2097351;28;20226;-71
2023/05/20 21:15:46;;;;;;;8.30;5.73;;;14.40;99.90;;;;;;2087840;28;20212;-70
2023/05/20 21:16:48;;;;;;;7.17;6.10;;;14.40;99.90;;;;;;2071557;28;20340;-70
2023/05/20 21:17:50;;;;;;;7.70;5.70;;;14.40;99.90;;;;;;2080103;28;20227;-71
2023/05/20 21:18:51;;;;;;;10.32;6.50;;;14.40;99.90;;;;;;2083938;28;20594;-70
2023/05/20 21:19:55;;;;;;;8.73;6.57;;;14.30;99.90;;;;;;2080798;28;20665;-70
2023/05/20 21:20:56;;;;;;;7.70;5.93;;;14.30;99.90;;;;;;2079343;28;20263;-70
2023/05/20 21:21:57;;;;;;;7.17;5.53;;;14.30;99.90;;;;;;2075072;28;20465;-70
2023/05/20 21:22:57;;;;;;;11.03;6.30;;;14.20;99.90;;;;;;2077787;28;20228;-70
2023/05/20 21:23:58;;;;;;;6.87;6.10;;;14.30;99.90;;;;;;2076635;28;20302;-72
2023/05/20 21:24:59;;;;;;;8.67;6.20;;;14.30;99.90;;;;;;2077938;28;20217;-71
2023/05/20 21:26:01;;;;;;;9.60;6.53;;;14.30;99.90;;;;;;2088222;28;20223;-74
2023/05/20 21:27:01;;;;;;;7.18;5.85;;;14.30;99.90;;;;;;2078697;28;20583;-71
2023/05/20 21:28:02;;;;;;;8.83;6.73;;;14.30;99.90;;;;;;2070928;28;20280;-69
2023/05/20 21:29:04;;;;;;;7.80;6.40;;;14.30;99.90;;;;;;2084921;28;20270;-70
2023/05/20 21:30:09;;;;;;;9.00;6.43;;;14.30;99.90;;;;;;2087775;28;20176;-70
2023/05/20 21:31:10;;;;;;;9.33;6.17;;;14.30;99.90;;;;;;2092010;28;20428;-70
2023/05/20 21:32:12;;;;;;;6.90;6.20;;;14.30;99.90;;;;;;2096159;28;20425;-70
2023/05/20 21:33:13;;;;;;;6.47;5.75;;;14.20;99.90;;;;;;2085032;28;20201;-70
2023/05/20 21:34:14;;;;;;;9.07;6.50;;;14.20;99.90;;;;;;2086669;28;20216;-70
2023/05/20 21:35:15;;;;;;;8.55;6.78;;;14.10;99.90;;;;;;2084100;28;20331;-70
2023/05/20 21:36:16;;;;;;;7.60;6.33;;;14.10;99.90;;;;;;2080040;28;20259;-70
2023/05/20 21:37:16;;;;;;;8.23;6.20;;;14.20;99.90;;;;;;2080359;28;20243;-71
2023/05/20 21:38:18;;;;;;;8.80;6.73;;;14.10;99.90;;;;;;2085657;28;20188;-71
2023/05/20 21:39:18;;;;;;;8.00;6.47;;;14.20;99.90;;;;;;2096488;28;20287;-70
2023/05/20 21:40:19;;;;;;;7.93;6.10;;;14.10;99.90;;;;;;2096155;28;20191;-70
2023/05/20 21:41:20;;;;;;;8.20;5.87;;;14.10;99.90;;;;;;2095350;28;20180;-69
2023/05/20 21:42:21;;;;;;;7.67;6.07;;;14.10;99.90;;;;;;2087892;28;20266;-70
2023/05/20 21:43:21;;;;;;;8.43;6.67;;;14.20;99.90;;;;;;2068808;28;20266;-70
2023/05/20 21:44:22;;;;;;;9.97;7.37;;;14.10;99.90;;;;;;2074240;28;20243;-69
2023/05/20 21:45:23;;;;;;;9.57;7.07;;;14.00;99.90;;;;;;2079613;28;20237;-70
2023/05/20 21:46:25;;;;;;;9.55;6.22;;;14.00;99.90;;;;;;2084360;28;20323;-69
2023/05/20 21:47:26;;;;;;;10.73;7.43;;;14.00;99.90;;;;;;2087987;28;20307;-70
2023/05/20 21:48:28;;;;;;;8.18;6.47;;;14.10;99.90;;;;;;2096591;28;20837;-70
2023/05/20 21:49:28;;;;;;;8.83;6.63;;;14.00;99.90;;;;;;2093839;28;20229;-70
2023/05/20 21:50:29;;;;;;;8.90;6.80;;;14.00;99.90;;;;;;2091525;28;20687;-69
2023/05/20 21:51:30;;;;;;;9.40;6.33;;;14.00;99.90;;;;;;2086760;28;20228;-71
2023/05/20 21:52:31;;;;;;;11.23;7.27;;;14.00;99.90;;;;;;2086305;28;20228;-70
2023/05/20 21:53:32;;;;;;;9.97;6.77;;;14.00;99.90;;;;;;2094291;28;20231;-71
2023/05/20 21:54:33;;;;;;;8.48;6.53;;;14.00;99.90;;;;;;2086689;28;20254;-70
2023/05/20 21:55:34;;;;;;;8.97;6.53;;;14.00;99.90;;;;;;2075674;28;20831;-70
2023/05/20 21:56:35;;;;;;;9.17;6.70;;;14.10;99.90;;;;;;2091776;28;20219;-69
2023/05/20 21:57:36;;;;;;;10.57;7.10;;;14.00;99.90;;;;;;2094228;28;20251;-70
2023/05/20 21:58:39;;;;;;;8.75;6.13;;;14.00;99.90;;;;;;2086449;28;20603;-70
2023/05/20 21:59:40;;;;;;;8.67;6.40;;;14.10;99.90;;;;;;2074192;28;20225;-70
2023/05/20 22:00:41;;;;;;;8.53;6.40;;;14.10;99.90;;;;;;2081633;28;20466;-71
2023/05/20 22:01:42;;;;;;;9.20;6.78;;;14.10;99.90;;;;;;2080229;28;20274;-69
2023/05/20 22:02:43;;;;;;;10.30;7.30;;;14.10;99.90;;;;;;2079716;28;20754;-70
2023/05/20 22:03:44;;;;;;;8.60;6.53;;;14.00;99.90;;;;;;2081288;28;20732;-76
2023/05/20 22:04:45;;;;;;;10.23;6.27;;;14.10;99.90;;;;;;2083736;28;20315;-69
2023/05/20 22:05:46;;;;;;;10.33;6.87;;;14.00;99.90;;;;;;2089769;28;20228;-68
2023/05/20 22:06:49;;;;;;;9.33;6.57;;;14.00;99.90;;;;;;2076464;28;20287;-69
2023/05/20 22:07:51;;;;;;;9.25;7.00;;;13.90;99.90;;;;;;2079657;28;20229;-69
2023/05/20 22:08:53;;;;;;;9.27;7.03;;;13.90;99.90;;;;;;2077319;28;20722;-68
2023/05/20 22:09:54;;;;;;;10.15;7.43;;;13.80;99.90;;;;;;2080641;28;20307;-68
2023/05/20 22:10:55;;;;;;;8.63;6.80;;;13.70;99.90;;;;;;2081151;28;20216;-69
2023/05/20 22:11:56;;;;;;;9.73;7.50;;;13.60;99.90;;;;;;2076500;28;20227;-70
2023/05/20 22:12:57;;;;;;;10.43;7.13;;;13.50;99.90;;;;;;2079046;28;20235;-70
2023/05/20 22:13:58;;;;;;;7.80;6.07;;;13.50;99.90;;;;;;2075868;28;20220;-70
2023/05/20 22:14:59;;;;;;;8.70;6.45;;;13.50;99.90;;;;;;2076715;28;20261;-70
2023/05/20 22:16:03;;;;;;;8.53;6.37;;;13.60;99.90;;;;;;2082902;28;20219;-69
2023/05/20 22:17:03;;;;;;;11.35;6.60;;;13.50;99.90;;;;;;2083605;28;20674;-69
2023/05/20 22:18:04;;;;;;;10.80;6.83;;;13.60;99.90;;;;;;2076956;28;20256;-69
2023/05/20 22:19:06;;;;;;;9.03;6.80;;;13.60;99.90;;;;;;2073288;28;20216;-69
2023/05/20 22:20:09;;;;;;;9.05;7.20;;;13.60;99.90;;;;;;2078139;28;20258;-70
2023/05/20 22:21:10;;;;;;;8.27;6.50;;;13.60;99.90;;;;;;2083510;28;20181;-69
2023/05/20 22:22:10;;;;;;;10.07;7.03;;;13.70;99.90;;;;;;2084665;28;20769;-69
2023/05/20 22:23:11;;;;;;;10.20;7.63;;;13.70;99.90;;;;;;2084948;28;20279;-70
2023/05/20 22:24:12;;;;;;;12.70;8.60;;;13.70;99.90;;;;;;2077535;28;20210;-69
2023/05/20 22:25:13;;;;;;;11.80;7.60;;;13.70;99.90;;;;;;2079122;28;20184;-68
2023/05/20 22:26:13;;;;;;;9.83;7.50;;;13.70;99.90;;;;;;2073045;28;20188;-69
2023/05/20 22:27:14;;;;;;;10.30;7.60;;;13.70;99.90;;;;;;2079021;28;20560;-69
2023/05/20 22:28:15;;;;;;;9.30;6.53;;;13.70;99.90;;;;;;2073277;28;20552;-69
2023/05/20 22:29:16;;;;;;;8.80;6.83;;;13.80;99.90;;;;;;2078514;28;20185;-69
2023/05/20 22:30:17;;;;;;;9.40;6.67;;;13.70;99.90;;;;;;2079157;28;20439;-70
2023/05/20 22:31:17;;;;;;;8.80;6.90;;;13.70;99.90;;;;;;2078678;28;20184;-70
2023/05/20 22:32:20;;;;;;;9.40;6.97;;;13.60;99.90;;;;;;2076442;28;20695;-70
2023/05/20 22:33:21;;;;;;;8.68;6.82;;;13.70;99.90;;;;;;2082813;28;20216;-69
2023/05/20 22:34:22;;;;;;;8.95;7.13;;;13.70;99.90;;;;;;2091744;28;20231;-69
2023/05/20 22:35:23;;;;;;;7.93;6.20;;;13.80;99.90;;;;;;2088223;28;20320;-69
2023/05/20 22:36:27;;;;;;;8.77;6.50;;;13.70;99.90;;;;;;2079061;28;20297;-69
2023/05/20 22:37:28;;;;;;;9.65;7.13;;;13.80;99.90;;;;;;2068112;28;20239;-69
2023/05/20 22:38:29;;;;;;;9.02;6.97;;;13.80;99.90;;;;;;2084796;28;20250;-69
2023/05/20 22:39:30;;;;;;;9.17;6.63;;;13.70;99.90;;;;;;2084866;28;20239;-70
2023/05/20 22:40:32;;;;;;;12.23;7.47;;;13.70;99.90;;;;;;2087511;28;20227;-70
2023/05/20 22:41:32;;;;;;;10.93;7.10;;;13.70;99.90;;;;;;2084037;28;20243;-70
2023/05/20 22:42:35;;;;;;;9.40;7.30;;;13.80;99.90;;;;;;2085235;28;20667;-71
2023/05/20 22:43:35;;;;;;;12.82;7.38;;;13.70;99.90;;;;;;2087743;28;20729;-69
2023/05/20 22:44:36;;;;;;;10.90;7.60;;;13.70;99.90;;;;;;2086545;28;20225;-69
2023/05/20 22:45:38;;;;;;;11.40;7.13;;;13.80;99.90;;;;;;2075868;28;20323;-69
2023/05/20 22:46:38;;;;;;;13.68;7.28;;;13.70;99.90;;;;;;2080049;28;20236;-68
2023/05/20 22:47:39;;;;;;;10.50;7.07;;;13.60;99.90;;;;;;2078973;28;20221;-68
2023/05/20 22:48:40;;;;;;;9.23;7.30;;;13.70;99.90;;;;;;2080752;28;20323;-68
2023/05/20 22:49:41;;;;;;;10.88;7.25;;;13.60;99.90;;;;;;2088410;28;20248;-68
2023/05/20 22:50:41;;;;;;;10.17;6.97;;;13.70;99.90;;;;;;2079739;28;20231;-69
2023/05/20 22:51:43;;;;;;;9.90;7.80;;;13.80;99.90;;;;;;2071063;28;20217;-69
2023/05/20 22:52:43;;;;;;;10.00;7.82;;;13.80;99.90;;;;;;2070815;28;20704;-68
2023/05/20 22:53:44;;;;;;;12.07;7.97;;;13.70;99.90;;;;;;2070715;28;20213;-70
2023/05/20 22:54:45;;;;;;;10.30;7.33;;;13.70;99.90;;;;;;2093829;28;20226;-69
2023/05/20 22:55:48;;;;;;;10.17;7.43;;;13.70;99.90;;;;;;2084472;28;20212;-68
2023/05/20 22:56:55;;;;;;;10.90;7.25;;;13.70;99.90;;;;;;2073159;28;20662;-69
2023/05/20 22:57:56;;;;;;;9.38;7.15;;;13.70;99.90;;;;;;2084461;28;20816;-69
2023/05/20 22:58:58;;;;;;;10.40;8.23;;;13.70;99.90;;;;;;2085042;28;20216;-69
2023/05/20 22:59:59;;;;;;;10.45;7.72;;;13.80;99.90;;;;;;2083824;28;20230;-70
2023/05/20 23:01:01;;;;;;;9.43;7.05;;;13.80;99.90;;;;;;2084711;28;20213;-69
2023/05/20 23:02:03;;;;;;;10.02;7.18;;;13.80;99.90;;;;;;2089413;28;20223;-70
2023/05/20 23:03:04;;;;;;;11.83;7.73;;;13.90;99.90;;;;;;2090436;28;20701;-69
2023/05/20 23:04:05;;;;;;;10.15;7.75;;;13.90;99.90;;;;;;2069415;28;20419;-68
2023/05/20 23:05:06;;;;;;;11.87;8.33;;;13.90;99.90;;;;;;2076798;28;20177;-69
2023/05/20 23:06:07;;;;;;;11.83;7.80;;;13.90;99.90;;;;;;2086766;28;20276;-71
2023/05/20 23:07:13;;;;;;;10.10;8.05;;;13.90;99.90;;;;;;2083206;28;20928;-70
2023/05/20 23:08:14;;;;;;;11.88;8.05;;;13.90;99.90;;;;;;2084782;28;20197;-68
2023/05/20 23:09:15;;;;;;;9.87;7.57;;;13.90;99.90;;;;;;2086380;28;20194;-68
2023/05/20 23:10:15;;;;;;;11.20;8.07;;;13.90;99.90;;;;;;2085555;28;20626;-68
2023/05/20 23:11:17;;;;;;;10.27;8.20;;;13.90;99.90;;;;;;2077887;28;20189;-68
2023/05/20 23:12:18;;;;;;;12.13;8.38;;;13.90;99.90;;;;;;2086753;28;20196;-69
2023/05/20 23:13:18;;;;;;;10.37;7.73;;;14.00;99.90;;;;;;2081699;28;20216;-70
2023/05/20 23:14:20;;;;;;;11.80;7.73;;;14.00;99.90;;;;;;2082900;28;20200;-69
2023/05/20 23:15:23;;;;;;;11.85;7.68;;;13.90;99.90;;;;;;2094356;28;20274;-70
2023/05/20 23:16:25;;;;;;;11.57;8.23;;;14.00;99.90;;;;;;2091603;28;20219;-69
2023/05/20 23:17:25;;;;;;;10.20;7.00;;;13.90;99.90;;;;;;2090520;28;20228;-70
2023/05/20 23:18:26;;;;;;;12.70;8.97;;;13.90;99.90;;;;;;2096228;28;20247;-70
2023/05/20 23:19:27;;;;;;;10.20;7.57;;;13.90;99.90;;;;;;2087881;28;20230;-70
2023/05/20 23:20:28;;;;;;;13.27;7.70;;;13.80;99.90;;;;;;2082069;28;20900;-69
2023/05/20 23:21:30;;;;;;;10.45;7.90;;;13.80;99.90;;;;;;2086423;28;20311;-70
2023/05/20 23:22:31;;;;;;;10.73;7.88;;;13.70;99.90;;;;;;2086580;28;20212;-69
2023/05/20 23:23:32;;;;;;;10.57;7.93;;;13.70;99.90;;;;;;2086237;28;20225;-70
2023/05/20 23:24:33;;;;;;;13.47;8.03;;;13.70;99.90;;;;;;2077810;28;20313;-69
2023/05/20 23:25:33;;;;;;;11.77;8.77;;;13.80;99.90;;;;;;2087183;28;20226;-69
2023/05/20 23:26:36;;;;;;;10.70;7.77;;;13.80;99.90;;;;;;2091828;28;20281;-69
2023/05/20 23:27:37;;;;;;;10.10;7.70;;;13.80;99.90;;;;;;2091184;28;20643;-69
2023/05/20 23:28:38;;;;;;;14.20;9.57;;;13.80;99.90;;;;;;2091983;28;20249;-69
2023/05/20 23:29:39;;;;;;;9.05;7.45;;;13.80;99.90;;;;;;2090941;28;20649;-69
2023/05/20 23:30:40;;;;;;;11.57;8.03;;;13.80;99.90;;;;;;2077652;28;20228;-68
2023/05/20 23:31:41;;;;;;;9.93;7.45;;;13.80;99.90;;;;;;2075627;28;20741;-68
2023/05/20 23:32:42;;;;;;;10.47;7.83;;;13.90;99.90;;;;;;2076430;28;20376;-69
2023/05/20 23:33:42;;;;;;;11.25;7.78;;;13.80;99.90;;;;;;2070373;28;20217;-69
2023/05/20 23:34:45;;;;;;;9.80;8.07;;;13.80;99.90;;;;;;2074613;28;20229;-69
2023/05/20 23:35:45;;;;;;;11.00;7.88;;;13.80;99.90;;;;;;2074150;28;20213;-69
2023/05/20 23:36:47;;;;;;;12.63;8.93;;;13.80;99.90;;;;;;2073054;28;20254;-69
2023/05/20 23:37:47;;;;;;;11.32;8.13;;;13.80;99.90;;;;;;2078237;28;20629;-69
2023/05/20 23:38:48;;;;;;;12.53;8.80;;;13.90;99.90;;;;;;2084485;28;20229;-69
2023/05/20 23:39:49;;;;;;;12.53;8.00;;;13.80;99.90;;;;;;2086115;28;20223;-69
2023/05/20 23:40:50;;;;;;;11.57;8.30;;;13.70;99.90;;;;;;2083640;28;20255;-69
2023/05/20 23:41:51;;;;;;;10.15;8.38;;;13.70;99.90;;;;;;2076639;28;20232;-69
2023/05/20 23:42:51;;;;;;;11.07;8.20;;;13.70;99.90;;;;;;2077960;28;20735;-70
2023/05/20 23:43:52;;;;;;;11.17;8.27;;;13.70;99.90;;;;;;2083323;28;20690;-69
2023/05/20 23:44:54;;;;;;;12.37;8.70;;;13.70;99.90;;;;;;2084347;28;20227;-69
2023/05/20 23:45:55;;;;;;;11.97;8.20;;;13.70;99.90;;;;;;2079122;28;20220;-69
2023/05/20 23:46:56;;;;;;;12.97;8.57;;;13.60;99.90;;;;;;2067303;28;20466;-69
2023/05/20 23:47:59;;;;;;;11.90;8.30;;;13.60;99.90;;;;;;2070856;28;20240;-69
2023/05/20 23:49:00;;;;;;;11.80;8.23;;;13.40;99.90;;;;;;2079202;28;20217;-69
2023/05/20 23:50:01;;;;;;;11.40;7.47;;;13.60;99.90;;;;;;2084925;28;20834;-70
2023/05/20 23:51:02;;;;;;;11.40;7.97;;;13.60;99.90;;;;;;2082893;28;20184;-70
2023/05/20 23:52:03;;;;;;;14.87;8.40;;;13.60;99.90;;;;;;2074575;28;20232;-69
2023/05/20 23:53:04;;;;;;;9.98;7.63;;;13.50;99.90;;;;;;2077618;28;20492;-70
2023/05/20 23:54:04;;;;;;;13.30;8.27;;;13.40;99.90;;;;;;2084428;28;20213;-69
2023/05/20 23:55:08;;;;;;;11.10;8.50;;;13.50;99.90;;;;;;2076182;28;20431;-69
2023/05/20 23:56:10;;;;;;;12.85;8.65;;;13.50;99.90;;;;;;2077803;28;20271;-69
2023/05/20 23:57:10;;;;;;;12.10;9.13;;;13.50;99.90;;;;;;2082942;28;20192;-69
2023/05/20 23:58:11;;;;;;;12.47;7.60;;;13.50;99.90;;;;;;2078871;28;20197;-68
2023/05/20 23:59:12;;;;;;;11.77;7.70;;;13.50;99.90;;;;;;2079044;28;20208;-69
